createdAt,value
2022-07-28T00:00:48.333Z,52.20
2022-07-28T00:03:14.912Z,52.06
2022-07-28T00:05:41.643Z,51.66
2022-07-28T00:08:10.140Z,51.55
2022-07-28T00:10:36.706Z,52.52
2022-07-28T00:13:03.192Z,53.45
2022-07-28T00:15:33.152Z,52.93
2022-07-28T00:18:00.594Z,52.76
2022-07-28T00:20:28.028Z,52.43
2022-07-28T00:22:54.555Z,53.05
2022-07-28T00:25:21.071Z,53.05
2022-07-28T00:27:48.332Z,53.26
2022-07-28T00:30:14.808Z,52.07
2022-07-28T00:32:41.657Z,52.81
2022-07-28T00:35:08.871Z,52.93
2022-07-28T00:37:35.430Z,53.06
2022-07-28T00:40:02.643Z,52.80
2022-07-28T00:42:29.085Z,52.89
2022-07-28T00:44:55.577Z,53.19
2022-07-28T00:47:22.426Z,53.58
2022-07-28T00:49:50.330Z,53.57
2022-07-28T00:52:18.348Z,52.94
2022-07-28T00:54:44.953Z,53.34
2022-07-28T00:57:11.444Z,53.99
2022-07-28T00:59:38.000Z,54.06
2022-07-28T01:02:05.252Z,53.95
2022-07-28T01:04:32.061Z,53.99
2022-07-28T01:07:10.571Z,54.25
2022-07-28T01:09:46.196Z,53.92
2022-07-28T01:12:34.015Z,53.66
2022-07-28T01:15:08.870Z,53.97
2022-07-28T01:17:59.868Z,53.83
2022-07-28T01:20:34.083Z,53.81
2022-07-28T01:23:05.794Z,53.48
2022-07-28T01:25:54.175Z,53.28
2022-07-28T01:28:32.973Z,54.24
2022-07-28T01:31:05.736Z,54.45
2022-07-28T01:33:44.287Z,54.28
2022-07-28T01:36:16.319Z,54.58
2022-07-28T01:38:44.045Z,53.90
2022-07-28T01:41:17.807Z,54.10
2022-07-28T01:43:48.178Z,54.33
2022-07-28T01:46:16.473Z,54.52
2022-07-28T01:48:45.616Z,54.38
2022-07-28T01:51:14.184Z,54.26
2022-07-28T01:53:43.089Z,54.09
2022-07-28T01:56:10.670Z,54.07
2022-07-28T01:58:38.829Z,53.97
2022-07-28T02:01:07.222Z,53.42
2022-07-28T02:03:34.975Z,53.47
2022-07-28T02:06:04.253Z,53.42
2022-07-28T02:08:33.637Z,53.23
2022-07-28T02:11:19.719Z,53.28
2022-07-28T02:13:48.301Z,53.78
2022-07-28T02:16:17.805Z,53.17
2022-07-28T02:18:45.672Z,54.24
2022-07-28T02:21:13.454Z,54.52
2022-07-28T02:23:43.341Z,54.37
2022-07-28T02:26:12.213Z,54.82
2022-07-28T02:28:43.608Z,54.56
2022-07-28T02:31:18.377Z,55.17
2022-07-28T02:33:59.910Z,55.30
2022-07-28T02:36:41.498Z,54.61
2022-07-28T02:39:15.684Z,54.72
2022-07-28T02:41:43.231Z,54.61
2022-07-28T02:44:16.495Z,54.99
2022-07-28T02:46:46.557Z,55.60
2022-07-28T02:49:18.378Z,55.35
2022-07-28T02:51:45.729Z,55.04
2022-07-28T02:54:13.582Z,55.23
2022-07-28T02:56:53.485Z,55.14
2022-07-28T02:59:21.331Z,55.35
2022-07-28T03:01:49.646Z,54.89
2022-07-28T03:04:17.672Z,55.68
2022-07-28T03:06:44.559Z,55.50
2022-07-28T03:09:11.409Z,55.41
2022-07-28T03:11:54.205Z,55.29
2022-07-28T03:14:20.648Z,55.07
2022-07-28T03:16:50.012Z,55.01
2022-07-28T03:19:18.766Z,55.21
2022-07-28T03:21:49.391Z,55.14
2022-07-28T03:24:18.467Z,55.21
2022-07-28T03:26:55.765Z,55.36
2022-07-28T03:29:23.047Z,55.78
2022-07-28T03:31:54.319Z,55.90
2022-07-28T03:34:21.120Z,56.20
2022-07-28T03:36:53.419Z,56.49
2022-07-28T03:39:23.817Z,55.96
2022-07-28T03:41:52.418Z,56.60
2022-07-28T03:44:19.278Z,56.43
2022-07-28T03:46:55.738Z,56.61
2022-07-28T03:49:22.380Z,56.73
2022-07-28T03:51:48.993Z,56.03
2022-07-28T03:54:15.782Z,57.13
2022-07-28T03:56:42.714Z,57.83
2022-07-28T03:59:11.241Z,57.88
2022-07-28T04:01:38.137Z,57.94
2022-07-28T04:04:04.843Z,58.90
2022-07-28T04:06:31.322Z,58.73
2022-07-28T04:08:57.749Z,58.93
2022-07-28T04:11:24.226Z,58.82
2022-07-28T04:13:50.878Z,59.60
2022-07-28T04:16:17.434Z,59.68
2022-07-28T04:18:43.965Z,59.94
2022-07-28T04:21:10.415Z,59.90
2022-07-28T04:23:36.962Z,59.70
2022-07-28T04:26:03.481Z,59.58
2022-07-28T04:28:30.010Z,60.00
2022-07-28T04:30:56.529Z,59.73
2022-07-28T04:33:24.826Z,59.39
2022-07-28T04:35:52.891Z,59.55
2022-07-28T04:38:20.783Z,59.00
2022-07-28T04:40:48.124Z,59.42
2022-07-28T04:43:14.841Z,59.82
2022-07-28T04:45:46.046Z,60.21
2022-07-28T04:48:21.009Z,59.71
2022-07-28T04:50:47.532Z,59.27
2022-07-28T04:53:14.030Z,58.96
2022-07-28T04:55:40.718Z,58.68
2022-07-28T04:58:07.822Z,59.21
2022-07-28T05:00:35.935Z,59.26
2022-07-28T05:03:03.633Z,59.64
2022-07-28T05:05:30.147Z,59.37
2022-07-28T05:07:56.993Z,59.73
2022-07-28T05:10:23.486Z,59.46
2022-07-28T05:12:50.521Z,58.49
2022-07-28T05:15:17.047Z,58.72
2022-07-28T05:17:43.541Z,58.64
2022-07-28T05:20:10.785Z,58.20
2022-07-28T05:22:45.192Z,58.47
2022-07-28T05:25:19.354Z,57.52
2022-07-28T05:27:47.254Z,57.18
2022-07-28T05:30:15.064Z,55.50
2022-07-28T05:32:41.725Z,55.66
2022-07-28T05:35:08.675Z,54.36
2022-07-28T05:37:36.435Z,53.75
2022-07-28T05:40:10.198Z,53.08
2022-07-28T05:42:36.767Z,52.91
2022-07-28T05:45:14.983Z,51.63
2022-07-28T05:47:48.791Z,49.75
2022-07-28T05:50:16.995Z,51.10
2022-07-28T05:52:44.180Z,51.44
2022-07-28T05:55:10.693Z,49.94
2022-07-28T05:57:37.939Z,48.38
2022-07-28T06:00:09.320Z,48.76
2022-07-28T06:02:35.947Z,48.20
2022-07-28T06:05:02.496Z,47.74
2022-07-28T06:07:42.955Z,46.23
2022-07-28T06:10:13.210Z,45.76
2022-07-28T06:12:45.747Z,46.39
2022-07-28T06:15:14.780Z,46.46
2022-07-28T06:17:42.225Z,44.58
2022-07-28T06:20:10.366Z,44.00
2022-07-28T06:22:45.161Z,42.90
2022-07-28T06:25:22.675Z,42.22
2022-07-28T06:27:51.009Z,40.85
2022-07-28T06:30:18.365Z,42.13
2022-07-28T06:32:45.903Z,40.44
2022-07-28T06:35:16.582Z,39.71
2022-07-28T06:37:44.690Z,38.95
2022-07-28T06:40:12.077Z,40.07
2022-07-28T06:42:39.042Z,39.58
2022-07-28T06:45:07.217Z,39.77
2022-07-28T06:47:33.960Z,40.97
2022-07-28T06:50:00.422Z,39.75
2022-07-28T06:52:27.369Z,38.77
2022-07-28T06:54:58.098Z,37.39
2022-07-28T06:57:33.310Z,35.27
2022-07-28T07:00:03.197Z,35.57
2022-07-28T07:02:29.830Z,34.16
2022-07-28T07:04:56.335Z,34.88
2022-07-28T07:07:23.605Z,34.66
2022-07-28T07:09:51.438Z,33.34
2022-07-28T07:12:17.876Z,33.35
2022-07-28T07:14:44.346Z,31.77
2022-07-28T07:17:10.785Z,32.21
2022-07-28T07:19:37.282Z,32.16
2022-07-28T07:22:03.742Z,32.72
2022-07-28T07:24:30.167Z,31.33
2022-07-28T07:26:56.618Z,31.67
2022-07-28T07:29:23.691Z,30.87
2022-07-28T07:31:52.879Z,30.69
2022-07-28T07:34:20.004Z,31.05
2022-07-28T07:36:46.798Z,31.41
2022-07-28T07:39:13.450Z,31.12
2022-07-28T07:41:39.982Z,30.47
2022-07-28T07:44:06.581Z,29.90
2022-07-28T07:46:33.095Z,29.36
2022-07-28T07:48:59.699Z,30.25
2022-07-28T07:51:26.187Z,30.65
2022-07-28T07:53:52.622Z,29.35
2022-07-28T07:56:19.134Z,30.73
2022-07-28T07:58:45.639Z,29.88
2022-07-28T08:01:12.900Z,29.19
2022-07-28T08:03:39.478Z,27.39
2022-07-28T08:06:05.936Z,28.14
2022-07-28T08:08:35.652Z,29.88
2022-07-28T08:11:07.278Z,28.13
2022-07-28T08:13:34.566Z,28.60
2022-07-28T08:16:01.193Z,29.09
2022-07-28T08:18:27.711Z,26.91
2022-07-28T08:20:54.196Z,27.01
2022-07-28T08:23:26.048Z,26.94
2022-07-28T08:25:52.853Z,27.52
2022-07-28T08:28:19.365Z,27.21
2022-07-28T08:30:46.105Z,25.76
2022-07-28T08:33:12.530Z,29.03
2022-07-28T08:35:39.897Z,30.06
2022-07-28T08:38:07.212Z,30.41
2022-07-28T08:40:36.541Z,29.32
2022-07-28T08:43:15.026Z,28.84
2022-07-28T08:45:44.761Z,29.37
2022-07-28T08:48:12.266Z,29.00
2022-07-28T08:50:39.468Z,28.93
2022-07-28T08:53:06.897Z,29.57
2022-07-28T08:55:35.757Z,28.70
2022-07-28T08:58:03.312Z,29.06
2022-07-28T09:00:30.069Z,26.36
2022-07-28T09:02:57.233Z,25.84
2022-07-28T09:05:25.740Z,27.48
2022-07-28T09:07:55.380Z,26.23
2022-07-28T09:10:23.117Z,26.44
2022-07-28T09:12:49.688Z,25.33
2022-07-28T09:15:16.191Z,25.07
2022-07-28T09:17:42.734Z,24.51
2022-07-28T09:20:11.562Z,24.97
2022-07-28T09:22:58.779Z,23.53
2022-07-28T09:25:26.467Z,23.57
2022-07-28T09:27:53.176Z,23.30
2022-07-28T09:30:29.224Z,22.78
2022-07-28T09:33:43.373Z,22.62
2022-07-28T09:35:59.860Z,22.96
2022-07-28T09:38:40.686Z,23.28
2022-07-28T09:41:07.452Z,23.76
2022-07-28T09:43:41.790Z,23.22
2022-07-28T09:46:10.401Z,22.47
2022-07-28T09:48:49.143Z,23.70
2022-07-28T09:51:35.759Z,23.57
2022-07-28T09:54:20.621Z,22.76
2022-07-28T09:56:47.187Z,22.94
2022-07-28T09:59:15.001Z,23.06
2022-07-28T10:02:02.178Z,22.82
2022-07-28T10:04:29.762Z,23.32
2022-07-28T10:07:17.969Z,24.90
2022-07-28T10:10:05.546Z,26.08
2022-07-28T10:12:33.936Z,25.81
2022-07-28T10:15:34.415Z,27.29
2022-07-28T10:18:01.556Z,24.84
2022-07-28T10:20:28.977Z,23.51
2022-07-28T10:23:01.397Z,23.43
2022-07-28T10:25:30.705Z,23.69
2022-07-28T10:27:59.286Z,22.23
2022-07-28T10:30:35.046Z,24.08
2022-07-28T10:33:05.059Z,24.70
2022-07-28T10:35:32.706Z,25.53
2022-07-28T10:38:16.673Z,23.50
2022-07-28T10:40:47.105Z,21.22
2022-07-28T10:43:13.863Z,22.65
2022-07-28T10:46:04.582Z,21.69
2022-07-28T10:48:27.864Z,22.11
2022-07-28T10:50:56.133Z,22.81
2022-07-28T10:53:45.461Z,22.70
2022-07-28T10:56:21.592Z,24.39
2022-07-28T10:59:02.770Z,21.98
2022-07-28T11:01:53.855Z,21.66
2022-07-28T11:04:46.163Z,21.94
2022-07-28T11:07:13.622Z,21.21
2022-07-28T11:09:40.307Z,19.99
2022-07-28T11:12:09.711Z,21.77
2022-07-28T11:14:39.505Z,20.26
2022-07-28T11:17:10.702Z,19.61
2022-07-28T11:20:07.119Z,18.97
2022-07-28T11:22:31.970Z,18.19
2022-07-28T11:25:19.128Z,19.07
2022-07-28T11:27:51.485Z,18.90
2022-07-28T11:30:36.553Z,20.35
2022-07-28T11:33:05.420Z,18.21
2022-07-28T11:35:53.455Z,20.51
2022-07-28T11:38:20.291Z,18.83
2022-07-28T11:40:49.512Z,18.27
2022-07-28T11:43:36.375Z,16.10
2022-07-28T11:46:07.813Z,15.00
2022-07-28T11:48:38.610Z,15.23
2022-07-28T11:51:05.213Z,15.58
2022-07-28T11:53:42.043Z,16.68
2022-07-28T11:56:16.197Z,15.29
2022-07-28T11:58:43.541Z,16.64
2022-07-28T12:01:20.906Z,16.43
2022-07-28T12:03:55.302Z,15.25
2022-07-28T12:06:28.774Z,16.22
2022-07-28T12:09:05.168Z,17.03
2022-07-28T12:11:36.491Z,17.46
2022-07-28T12:14:12.098Z,16.10
2022-07-28T12:16:41.050Z,14.20
2022-07-28T12:19:10.076Z,15.31
2022-07-28T12:21:46.326Z,14.86
2022-07-28T12:24:20.226Z,16.31
2022-07-28T12:26:49.866Z,15.68
2022-07-28T12:29:19.587Z,17.79
2022-07-28T12:32:00.857Z,17.15
2022-07-28T12:34:29.318Z,17.56
2022-07-28T12:36:58.391Z,18.33
2022-07-28T12:39:25.976Z,18.87
2022-07-28T12:42:03.999Z,18.43
2022-07-28T12:44:38.709Z,17.73
2022-07-28T12:47:08.179Z,18.76
2022-07-28T12:49:35.928Z,18.57
2022-07-28T12:52:25.244Z,17.40
2022-07-28T12:54:54.572Z,16.01
2022-07-28T12:57:51.685Z,16.26
2022-07-28T13:00:22.458Z,15.51
2022-07-28T13:02:51.443Z,16.63
2022-07-28T13:05:57.376Z,16.98
2022-07-28T13:08:27.495Z,15.33
2022-07-28T13:10:58.790Z,14.52
2022-07-28T13:13:27.029Z,13.97
2022-07-28T13:16:19.589Z,14.27
2022-07-28T13:18:53.292Z,14.65
2022-07-28T13:21:58.596Z,14.08
2022-07-28T13:24:28.472Z,13.69
2022-07-28T13:26:55.932Z,13.49
2022-07-28T13:29:22.630Z,14.20
2022-07-28T13:31:49.258Z,14.39
2022-07-28T13:34:17.287Z,15.85
2022-07-28T13:36:44.088Z,17.29
2022-07-28T13:39:10.852Z,17.98
2022-07-28T13:41:56.272Z,16.80
2022-07-28T13:44:23.949Z,17.03
2022-07-28T13:46:50.684Z,17.26
2022-07-28T13:49:17.335Z,17.63
2022-07-28T13:51:47.984Z,18.61
2022-07-28T13:54:14.651Z,18.65
2022-07-28T13:56:42.263Z,17.24
2022-07-28T13:59:09.483Z,18.11
2022-07-28T14:01:41.328Z,18.19
2022-07-28T14:04:14.587Z,17.21
2022-07-28T14:06:44.960Z,17.79
2022-07-28T14:09:12.018Z,17.33
2022-07-28T14:11:41.272Z,16.90
2022-07-28T14:14:17.617Z,17.35
2022-07-28T14:16:47.759Z,17.36
2022-07-28T14:19:16.517Z,17.48
2022-07-28T14:21:50.230Z,18.99
2022-07-28T14:24:17.352Z,20.12
2022-07-28T14:26:44.262Z,20.82
2022-07-28T14:29:11.254Z,20.81
2022-07-28T14:31:38.578Z,21.46
2022-07-28T14:34:05.209Z,21.25
2022-07-28T14:36:31.685Z,21.41
2022-07-28T14:38:58.506Z,21.60
2022-07-28T14:41:26.207Z,22.15
2022-07-28T14:43:53.166Z,22.26
2022-07-28T14:46:21.880Z,22.94
2022-07-28T14:48:48.867Z,23.41
2022-07-28T14:51:15.390Z,24.12
2022-07-28T14:53:43.420Z,24.24
2022-07-28T14:56:16.737Z,24.58
2022-07-28T14:58:43.468Z,24.25
2022-07-28T15:01:10.291Z,24.08
2022-07-28T15:03:37.619Z,24.17
2022-07-28T15:06:09.904Z,25.52
2022-07-28T15:08:36.358Z,25.36
2022-07-28T15:11:03.170Z,25.75
2022-07-28T15:13:29.673Z,25.27
2022-07-28T15:15:56.803Z,25.73
2022-07-28T15:18:24.457Z,26.02
2022-07-28T15:20:51.446Z,25.16
2022-07-28T15:23:18.466Z,26.09
2022-07-28T15:25:46.891Z,26.71
2022-07-28T15:28:16.440Z,27.42
2022-07-28T15:30:51.336Z,27.14
2022-07-28T15:33:20.526Z,27.21
2022-07-28T15:35:59.025Z,26.79
2022-07-28T15:38:29.175Z,26.64
2022-07-28T15:40:58.629Z,26.41
2022-07-28T15:43:25.138Z,27.55
2022-07-28T15:45:54.160Z,27.12
2022-07-28T15:48:22.506Z,27.15
2022-07-28T15:50:49.225Z,27.91
2022-07-28T15:53:16.496Z,27.62
2022-07-28T15:55:47.539Z,28.22
2022-07-28T15:58:17.225Z,28.06
2022-07-28T16:00:44.520Z,27.79
2022-07-28T16:03:12.455Z,28.11
2022-07-28T16:05:39.049Z,28.32
2022-07-28T16:08:05.721Z,28.10
2022-07-28T16:10:32.397Z,28.32
2022-07-28T16:12:58.946Z,28.29
2022-07-28T16:15:26.958Z,28.76
2022-07-28T16:17:54.410Z,28.53
2022-07-28T16:20:21.619Z,27.95
2022-07-28T16:22:48.251Z,28.79
2022-07-28T16:25:20.309Z,28.57
2022-07-28T16:27:48.469Z,28.30
2022-07-28T16:30:16.269Z,28.52
2022-07-28T16:32:43.175Z,29.11
2022-07-28T16:35:10.538Z,29.04
2022-07-28T16:37:37.659Z,29.77
2022-07-28T16:40:04.677Z,30.40
2022-07-28T16:42:31.679Z,30.16
2022-07-28T16:44:58.196Z,30.52
2022-07-28T16:47:24.773Z,29.92
2022-07-28T16:49:51.270Z,29.89
2022-07-28T16:52:17.870Z,29.50
2022-07-28T16:54:44.324Z,29.36
2022-07-28T16:57:12.302Z,29.15
2022-07-28T16:59:48.384Z,29.29
2022-07-28T17:02:15.906Z,30.16
2022-07-28T17:04:42.488Z,30.34
2022-07-28T17:07:09.021Z,30.64
2022-07-28T17:09:35.492Z,30.90
2022-07-28T17:12:01.994Z,31.47
2022-07-28T17:14:28.454Z,31.88
2022-07-28T17:16:54.893Z,31.75
2022-07-28T17:19:22.172Z,32.01
2022-07-28T17:21:48.813Z,31.80
2022-07-28T17:24:16.083Z,31.92
2022-07-28T17:27:35.163Z,31.47
2022-07-28T17:29:29.750Z,31.87
2022-07-28T17:31:56.234Z,31.40
2022-07-28T17:34:22.729Z,31.49
2022-07-28T17:36:50.435Z,31.63
2022-07-28T17:39:17.007Z,32.40
2022-07-28T17:41:43.437Z,32.00
2022-07-28T17:44:09.953Z,32.25
2022-07-28T17:46:36.485Z,31.75
2022-07-28T17:49:04.395Z,32.18
2022-07-28T17:51:31.155Z,31.94
2022-07-28T17:53:57.844Z,31.74
2022-07-28T17:56:24.869Z,32.12
2022-07-28T17:58:52.454Z,31.91
2022-07-28T18:01:19.130Z,32.24
2022-07-28T18:03:57.143Z,32.53
2022-07-28T18:06:28.318Z,32.73
2022-07-28T18:08:54.780Z,33.10
2022-07-28T18:11:21.227Z,33.71
2022-07-28T18:14:04.348Z,33.22
2022-07-28T18:16:35.201Z,33.39
2022-07-28T18:19:02.848Z,33.58
2022-07-28T18:21:29.386Z,33.98
2022-07-28T18:23:55.883Z,33.75
2022-07-28T18:26:22.395Z,34.45
2022-07-28T18:28:49.092Z,34.52
2022-07-28T18:31:15.623Z,34.38
2022-07-28T18:33:42.224Z,35.19
2022-07-28T18:36:08.788Z,35.66
2022-07-28T18:38:35.231Z,35.55
2022-07-28T18:41:01.686Z,35.96
2022-07-28T18:43:28.127Z,36.68
2022-07-28T18:45:54.627Z,36.81
2022-07-28T18:48:21.232Z,36.68
2022-07-28T18:50:47.674Z,36.62
2022-07-28T18:53:14.112Z,37.78
2022-07-28T18:55:40.602Z,38.03
2022-07-28T18:58:07.059Z,38.47
2022-07-28T19:00:33.805Z,39.02
2022-07-28T19:03:01.453Z,39.24
2022-07-28T19:05:28.157Z,38.98
2022-07-28T19:08:04.055Z,39.92
2022-07-28T19:10:30.637Z,40.17
2022-07-28T19:12:57.093Z,39.74
2022-07-28T19:15:23.976Z,40.21
2022-07-28T19:18:10.229Z,40.22
2022-07-28T19:20:39.240Z,40.79
2022-07-28T19:23:06.024Z,41.04
2022-07-28T19:25:32.849Z,41.35
2022-07-28T19:27:59.293Z,41.29
2022-07-28T19:30:25.746Z,41.75
2022-07-28T19:32:52.204Z,42.30
2022-07-28T19:35:18.690Z,42.35
2022-07-28T19:37:45.257Z,42.71
2022-07-28T19:40:11.958Z,42.95
2022-07-28T19:42:38.398Z,44.08
2022-07-28T19:45:05.985Z,44.15
2022-07-28T19:47:32.600Z,44.11
2022-07-28T19:50:05.045Z,44.08
2022-07-28T19:52:31.743Z,44.04
2022-07-28T19:54:58.177Z,43.48
2022-07-28T19:57:25.298Z,44.06
2022-07-28T19:59:52.583Z,44.21
2022-07-28T20:02:19.096Z,44.05
2022-07-28T20:04:45.548Z,44.25
2022-07-28T20:07:12.018Z,43.65
2022-07-28T20:09:38.553Z,43.65
2022-07-28T20:12:05.343Z,43.59
2022-07-28T20:14:34.471Z,44.23
2022-07-28T20:17:01.047Z,44.43
2022-07-28T20:19:27.592Z,44.81
2022-07-28T20:21:54.178Z,44.63
2022-07-28T20:24:21.026Z,45.29
2022-07-28T20:26:47.435Z,45.39
2022-07-28T20:29:13.863Z,45.56
2022-07-28T20:31:40.329Z,45.86
2022-07-28T20:34:07.104Z,45.82
2022-07-28T20:36:34.660Z,45.21
2022-07-28T20:39:01.350Z,44.88
2022-07-28T20:41:27.783Z,44.54
2022-07-28T20:46:41.522Z,44.06
2022-07-28T20:49:08.042Z,43.62
2022-07-28T20:51:34.515Z,44.34
2022-07-28T20:54:00.960Z,44.31
2022-07-28T20:56:27.404Z,43.84
2022-07-28T20:58:53.992Z,43.75
2022-07-28T21:01:23.451Z,44.20
2022-07-28T21:03:50.053Z,44.18
2022-07-28T21:06:16.553Z,44.25
2022-07-28T21:08:44.765Z,44.58
2022-07-28T21:11:11.856Z,44.22
2022-07-28T21:13:38.284Z,44.67
2022-07-28T21:16:04.994Z,45.19
2022-07-28T21:18:31.441Z,45.23
2022-07-28T21:20:59.557Z,44.39
2022-07-28T21:23:26.023Z,44.38
2022-07-28T21:25:52.694Z,43.84
2022-07-28T21:28:37.566Z,43.87
2022-07-28T21:31:04.125Z,44.08
2022-07-28T21:33:30.677Z,44.58
2022-07-28T21:35:57.290Z,43.76
2022-07-28T21:38:23.761Z,43.71
2022-07-28T21:40:50.284Z,44.90
2022-07-28T21:43:16.765Z,44.47
2022-07-28T21:45:43.297Z,45.17
2022-07-28T21:48:09.845Z,45.59
2022-07-28T21:50:37.546Z,45.45
2022-07-28T21:53:04.650Z,45.98
2022-07-28T21:55:31.110Z,45.68
2022-07-28T21:57:57.580Z,45.93
2022-07-28T22:00:24.091Z,45.68
2022-07-28T22:02:50.529Z,46.31
2022-07-28T22:05:17.922Z,46.14
2022-07-28T22:07:44.482Z,45.24
2022-07-28T22:10:11.428Z,46.64
2022-07-28T22:12:39.466Z,47.25
2022-07-28T22:15:06.650Z,47.10
2022-07-28T22:17:33.230Z,47.53
2022-07-28T22:19:59.709Z,47.53
2022-07-28T22:22:26.228Z,48.04
2022-07-28T22:24:52.726Z,47.75
2022-07-28T22:27:19.269Z,47.70
2022-07-28T22:29:51.414Z,47.57
2022-07-28T22:32:19.027Z,48.23
2022-07-28T22:34:55.072Z,49.12
2022-07-28T22:37:21.516Z,48.94
2022-07-28T22:39:48.071Z,48.80
2022-07-28T22:42:14.538Z,48.66
2022-07-28T22:44:40.963Z,47.62
2022-07-28T22:47:07.408Z,48.49
2022-07-28T22:49:33.881Z,49.17
2022-07-28T22:52:00.970Z,48.77
2022-07-28T22:54:27.405Z,49.00
2022-07-28T22:56:53.917Z,50.43
2022-07-28T22:59:20.422Z,49.45
2022-07-28T23:01:48.163Z,50.28
2022-07-28T23:04:15.182Z,50.62
2022-07-28T23:06:42.235Z,49.36
2022-07-28T23:09:08.856Z,48.81
2022-07-28T23:11:35.378Z,49.02
2022-07-28T23:14:01.990Z,48.83
2022-07-28T23:16:28.654Z,49.72
2022-07-28T23:18:55.307Z,50.43
2022-07-28T23:21:21.923Z,49.75
2022-07-28T23:23:48.467Z,50.82
2022-07-28T23:26:15.017Z,50.51
2022-07-28T23:28:41.510Z,51.28
2022-07-28T23:31:08.137Z,50.61
2022-07-28T23:33:56.568Z,51.18
2022-07-28T23:36:27.400Z,51.74
2022-07-28T23:38:58.632Z,51.94
2022-07-28T23:41:26.865Z,51.52
2022-07-28T23:43:53.477Z,52.24
2022-07-28T23:46:20.130Z,52.15
2022-07-28T23:48:46.902Z,52.61
2022-07-28T23:51:16.495Z,53.20
2022-07-28T23:53:43.930Z,52.88
2022-07-28T23:56:10.471Z,53.29
2022-07-28T23:58:37.142Z,53.45
